Time;durP1;ratioP1;P1;durP2;ratioP2;P2;SDS_P1;SDS_P2;PMS_P1;PMS_P2;Temp;Humidity;BMP_temperature;BMP_pressure;BME280_temperature;BME280_humidity;BME280_pressure;Samples;Min_cycle;Max_cycle;Signal;HPM_P1;HPM_P2
2023/04/10 00:00:19;;;;;;;26.92;14.25;;;;;;;8.66;100.00;101860.59;5085117;28;20405;-74
2023/04/10 00:02:55;;;;;;;30.02;14.50;;;;;;;8.66;100.00;101852.31;5083260;28;20389;-76
2023/04/10 00:05:22;;;;;;;28.10;13.90;;;;;;;8.65;100.00;101842.44;5078363;28;20843;-74
2023/04/10 00:07:48;;;;;;;32.25;15.02;;;;;;;8.63;100.00;101850.28;5079465;28;20047;-74
2023/04/10 00:10:15;;;;;;;26.77;13.10;;;;;;;8.62;100.00;101847.88;5084131;28;20044;-74
2023/04/10 00:12:42;;;;;;;29.67;14.48;;;;;;;8.56;100.00;101841.81;5086436;28;20040;-74
2023/04/10 00:15:09;;;;;;;30.38;15.80;;;;;;;8.52;100.00;101845.66;5086331;28;20051;-74
2023/04/10 00:17:35;;;;;;;28.55;14.88;;;;;;;8.52;100.00;101829.91;5082429;28;20048;-74
2023/04/10 00:20:03;;;;;;;28.27;14.77;;;;;;;8.44;100.00;101825.34;5081326;28;20043;-74
2023/04/10 00:22:30;;;;;;;39.22;18.25;;;;;;;8.52;100.00;101827.16;5074143;28;20055;-74
2023/04/10 00:24:56;;;;;;;29.95;16.05;;;;;;;8.48;100.00;101819.94;5076491;28;20502;-75
2023/04/10 00:27:23;;;;;;;29.52;15.10;;;;;;;8.45;100.00;101818.69;5081482;28;20147;-75
2023/04/10 00:29:49;;;;;;;28.60;14.40;;;;;;;8.40;100.00;101812.66;5081989;28;20048;-74
2023/04/10 00:32:16;;;;;;;33.60;15.05;;;;;;;8.39;100.00;101814.59;5080772;28;20041;-74
2023/04/10 00:34:42;;;;;;;31.33;15.07;;;;;;;8.30;100.00;101791.13;5075382;28;20136;-75
2023/04/10 00:37:09;;;;;;;30.20;15.60;;;;;;;8.35;100.00;101804.63;5082876;28;20085;-75
2023/04/10 00:39:35;;;;;;;30.25;15.25;;;;;;;8.34;100.00;101809.38;5086126;28;20044;-75
2023/04/10 00:42:02;;;;;;;31.95;15.70;;;;;;;8.32;100.00;101797.06;5072471;28;20048;-76
2023/04/10 00:44:29;;;;;;;31.30;15.85;;;;;;;8.30;100.00;101796.63;5086842;28;20040;-74
2023/04/10 00:46:56;;;;;;;32.30;15.65;;;;;;;8.25;100.00;101799.66;5080249;28;20486;-75
2023/04/10 00:49:22;;;;;;;33.00;16.63;;;;;;;8.21;100.00;101804.25;5083151;28;20147;-75
2023/04/10 00:51:49;;;;;;;38.03;20.50;;;;;;;8.18;100.00;101793.91;5082965;28;20052;-73
2023/04/10 00:54:16;;;;;;;38.05;16.70;;;;;;;8.16;100.00;101796.25;5083188;28;20486;-75
2023/04/10 00:56:43;;;;;;;29.80;15.13;;;;;;;8.06;100.00;101789.28;5087378;28;20173;-75
2023/04/10 00:59:10;;;;;;;34.42;17.45;;;;;;;8.07;100.00;101795.63;5085307;28;20044;-75
2023/04/10 01:01:36;;;;;;;37.97;19.90;;;;;;;8.00;100.00;101782.44;5083993;28;20044;-74
2023/04/10 01:04:03;;;;;;;37.65;18.83;;;;;;;8.01;100.00;101787.59;5076095;28;20095;-75
2023/04/10 01:06:57;;;;;;;40.10;20.30;;;;;;;7.96;100.00;101787.06;5085977;28;20036;-75
2023/04/10 01:09:23;;;;;;;42.15;18.70;;;;;;;7.97;100.00;101794.19;5081709;28;20055;-74
2023/04/10 01:11:59;;;;;;;37.13;18.75;;;;;;;7.94;100.00;101798.44;5080650;28;20450;-73
2023/04/10 01:14:49;;;;;;;37.63;19.40;;;;;;;7.91;100.00;101795.59;5087001;28;20040;-73
2023/04/10 01:17:42;;;;;;;36.22;18.45;;;;;;;7.86;100.00;101793.91;5083695;28;20501;-75
2023/04/10 01:20:11;;;;;;;40.85;19.95;;;;;;;7.87;100.00;101789.19;5100280;28;20123;-75
2023/04/10 01:23:07;;;;;;;35.13;17.58;;;;;;;7.79;100.00;101792.88;5080106;28;20084;-74
2023/04/10 01:25:41;;;;;;;38.70;19.92;;;;;;;7.80;100.00;101783.50;5066917;28;20053;-74
2023/04/10 01:28:45;;;;;;;34.53;17.92;;;;;;;7.91;100.00;101784.56;5077353;28;20044;-75
2023/04/10 01:31:17;;;;;;;40.22;20.42;;;;;;;7.87;100.00;101773.44;5081860;28;20032;-74
2023/04/10 01:33:49;;;;;;;34.38;19.08;;;;;;;7.86;100.00;101773.78;5084344;28;20040;-75
2023/04/10 01:36:23;;;;;;;36.45;19.20;;;;;;;7.87;100.00;101762.41;5081644;28;20042;-74
2023/04/10 01:38:52;;;;;;;37.72;18.95;;;;;;;7.93;100.00;101757.44;5080962;28;20351;-75
2023/04/10 01:41:20;;;;;;;41.22;20.38;;;;;;;7.92;100.00;101755.84;5083952;28;20055;-74
2023/04/10 01:43:50;;;;;;;37.08;19.38;;;;;;;7.92;100.00;101753.09;5080589;28;20041;-75
2023/04/10 01:46:20;;;;;;;34.80;18.83;;;;;;;8.01;100.00;101750.97;5079761;28;20131;-74
2023/04/10 01:48:48;;;;;;;39.35;20.08;;;;;;;8.02;100.00;101742.34;5078752;28;20044;-74
2023/04/10 01:51:16;;;;;;;42.88;23.65;;;;;;;8.09;100.00;101750.00;5081576;28;20047;-73
2023/04/10 01:53:46;;;;;;;37.92;19.63;;;;;;;8.05;100.00;101740.84;5079061;28;20143;-74
2023/04/10 01:56:14;;;;;;;42.83;19.73;;;;;;;8.05;100.00;101746.34;5077404;28;20055;-74
2023/04/10 01:58:41;;;;;;;36.05;19.50;;;;;;;8.10;100.00;101743.31;5084775;28;20048;-75
2023/04/10 02:01:08;;;;;;;38.90;19.80;;;;;;;8.07;100.00;101735.78;5078753;28;20042;-73
2023/04/10 02:03:52;;;;;;;32.88;19.65;;;;;;;8.07;100.00;101746.81;5075356;28;20055;-73
2023/04/10 02:06:34;;;;;;;39.63;19.08;;;;;;;8.05;100.00;101743.59;5083260;28;20072;-75
2023/04/10 02:09:01;;;;;;;37.63;18.55;;;;;;;8.08;100.00;101745.66;5084248;28;20044;-73
2023/04/10 02:11:37;;;;;;;38.88;20.65;;;;;;;8.08;100.00;101740.13;5085377;28;20040;-73
2023/04/10 02:14:09;;;;;;;39.17;20.48;;;;;;;8.10;100.00;101743.31;5088379;28;20048;-75
2023/04/10 02:16:38;;;;;;;35.88;18.20;;;;;;;8.12;100.00;101742.97;5092415;28;20142;-76
2023/04/10 02:19:05;;;;;;;36.42;19.23;;;;;;;8.12;100.00;101738.25;5089016;28;20044;-74
2023/04/10 02:21:33;;;;;;;35.33;18.52;;;;;;;8.18;100.00;101736.84;5088386;28;20226;-74
2023/04/10 02:23:59;;;;;;;34.70;18.42;;;;;;;8.21;100.00;101738.88;5089639;28;20052;-75
2023/04/10 02:26:26;;;;;;;33.85;19.10;;;;;;;8.32;100.00;101739.97;5089618;28;20516;-73
2023/04/10 02:28:52;;;;;;;35.88;17.80;;;;;;;8.42;100.00;101731.16;5086799;28;20036;-76
2023/04/10 02:31:19;;;;;;;36.10;17.23;;;;;;;8.46;100.00;101726.50;5089577;28;20043;-73
2023/04/10 02:33:46;;;;;;;34.10;17.90;;;;;;;8.50;100.00;101721.88;5087300;28;20044;-73
2023/04/10 02:36:13;;;;;;;31.27;16.02;;;;;;;8.56;100.00;101728.72;5090163;28;20136;-74
2023/04/10 02:38:39;;;;;;;31.38;16.42;;;;;;;8.67;100.00;101718.72;5092557;28;20509;-74
2023/04/10 02:41:06;;;;;;;30.65;15.80;;;;;;;8.81;100.00;101719.03;5089348;28;20066;-73
2023/04/10 02:43:32;;;;;;;31.95;15.07;;;;;;;8.98;100.00;101726.09;5088441;28;20094;-73
2023/04/10 02:45:59;;;;;;;29.73;15.60;;;;;;;9.05;100.00;101726.25;5089837;28;20163;-73
2023/04/10 02:48:25;;;;;;;31.20;15.38;;;;;;;9.11;100.00;101722.81;5088404;28;20486;-74
2023/04/10 02:50:56;;;;;;;29.50;14.63;;;;;;;9.15;100.00;101723.69;5086087;28;20032;-75
2023/04/10 02:53:24;;;;;;;28.05;14.30;;;;;;;9.25;100.00;101717.59;5088747;28;20155;-73
2023/04/10 02:55:53;;;;;;;27.70;14.07;;;;;;;9.38;100.00;101724.56;5089770;28;20050;-74
2023/04/10 02:58:20;;;;;;;31.40;14.40;;;;;;;9.45;100.00;101721.94;5094801;28;20155;-76
2023/04/10 03:00:49;;;;;;;28.63;13.68;;;;;;;9.57;100.00;101715.44;5089189;28;20040;-74
2023/04/10 03:03:18;;;;;;;27.95;13.10;;;;;;;9.65;100.00;101720.75;5090064;28;20044;-74
2023/04/10 03:05:48;;;;;;;26.20;13.38;;;;;;;9.69;100.00;101720.81;5089070;28;20045;-75
2023/04/10 03:08:16;;;;;;;30.88;14.48;;;;;;;9.74;100.00;101715.78;5089899;28;20097;-76
2023/04/10 03:10:47;;;;;;;27.73;12.55;;;;;;;9.83;100.00;101715.53;5089360;28;20062;-75
2023/04/10 03:13:14;;;;;;;27.42;14.07;;;;;;;9.90;100.00;101705.41;5087663;28;20047;-74
2023/04/10 03:15:41;;;;;;;27.27;13.95;;;;;;;9.95;100.00;101707.84;5089538;28;20048;-73
2023/04/10 03:18:10;;;;;;;26.63;13.05;;;;;;;9.97;100.00;101700.00;5088299;28;20048;-74
2023/04/10 03:20:37;;;;;;;24.50;11.45;;;;;;;10.07;100.00;101709.66;5089262;28;20054;-74
2023/04/10 03:23:07;;;;;;;24.77;12.30;;;;;;;10.13;100.00;101697.91;5086107;28;20052;-74
2023/04/10 03:25:34;;;;;;;24.83;12.85;;;;;;;10.13;100.00;101697.91;5087864;28;20048;-74
2023/04/10 03:28:00;;;;;;;23.75;12.10;;;;;;;10.21;100.00;101694.13;5089255;28;20221;-74
2023/04/10 03:30:27;;;;;;;24.40;12.10;;;;;;;10.20;100.00;101683.41;5086230;28;20044;-76
2023/04/10 03:32:54;;;;;;;23.13;12.23;;;;;;;10.18;100.00;101683.78;5087025;28;20756;-75
2023/04/10 03:35:21;;;;;;;24.73;11.65;;;;;;;10.21;100.00;101683.03;5089010;28;20052;-75
2023/04/10 03:37:47;;;;;;;23.92;11.23;;;;;;;10.25;100.00;101689.44;5088691;28;20581;-72
2023/04/10 03:40:14;;;;;;;22.40;10.50;;;;;;;10.29;100.00;101683.94;5088707;28;20052;-76
2023/04/10 03:42:40;;;;;;;22.60;12.40;;;;;;;10.29;100.00;101679.22;5086998;28;20046;-73
2023/04/10 03:45:07;;;;;;;22.83;11.02;;;;;;;10.29;100.00;101684.75;5088038;28;20044;-75
2023/04/10 03:47:34;;;;;;;23.55;10.98;;;;;;;10.37;100.00;101683.66;5085320;28;20059;-76
2023/04/10 03:50:01;;;;;;;27.70;10.25;;;;;;;10.36;100.00;101675.75;5084550;28;20446;-75
2023/04/10 03:52:27;;;;;;;23.05;10.82;;;;;;;10.33;100.00;101662.69;5087762;28;20075;-74
2023/04/10 03:54:54;;;;;;;22.15;9.82;;;;;;;10.34;100.00;101675.34;5088817;28;20048;-75
2023/04/10 03:57:20;;;;;;;21.50;11.10;;;;;;;10.39;100.00;101672.22;5087653;28;20525;-75
2023/04/10 03:59:47;;;;;;;20.98;10.63;;;;;;;10.38;100.00;101667.88;5088006;28;20051;-73
2023/04/10 04:02:14;;;;;;;21.77;11.45;;;;;;;10.34;100.00;101672.56;5085164;28;20040;-75
2023/04/10 04:04:40;;;;;;;23.45;11.73;;;;;;;10.35;100.00;101669.44;5087908;28;20052;-76
2023/04/10 04:07:07;;;;;;;21.52;9.77;;;;;;;10.40;100.00;101671.09;5088429;28;20058;-74
2023/04/10 04:09:34;;;;;;;20.42;9.15;;;;;;;10.39;100.00;101659.22;5085084;28;20043;-75
2023/04/10 04:12:01;;;;;;;20.77;9.45;;;;;;;10.41;100.00;101662.41;5086377;28;20044;-75
2023/04/10 04:14:27;;;;;;;21.52;9.00;;;;;;;10.44;100.00;101671.94;5086323;28;20557;-76
2023/04/10 04:16:54;;;;;;;19.90;9.88;;;;;;;10.43;100.00;101660.06;5083265;28;20044;-75
2023/04/10 04:19:20;;;;;;;20.83;10.23;;;;;;;10.44;100.00;101658.88;5087779;28;20126;-75
2023/04/10 04:21:47;;;;;;;22.10;10.43;;;;;;;10.44;100.00;101664.41;5090017;28;20032;-75
2023/04/10 04:24:14;;;;;;;19.63;9.35;;;;;;;10.47;100.00;101655.34;5083845;28;20103;-75
2023/04/10 04:26:40;;;;;;;21.17;10.38;;;;;;;10.44;100.00;101655.31;5089752;28;20058;-74
2023/04/10 04:29:07;;;;;;;19.33;9.10;;;;;;;10.50;100.00;101654.63;5087716;28;20036;-74
2023/04/10 04:31:33;;;;;;;21.63;10.05;;;;;;;10.57;100.00;101647.59;5090297;28;20063;-75
2023/04/10 04:34:00;;;;;;;20.42;9.55;;;;;;;10.56;100.00;101649.56;5085304;28;20047;-74
2023/04/10 04:36:27;;;;;;;19.80;9.57;;;;;;;10.62;100.00;101659.13;5086893;28;20448;-73
2023/04/10 04:38:54;;;;;;;20.98;9.88;;;;;;;10.62;100.00;101655.56;5087900;28;20063;-74
2023/04/10 04:41:20;;;;;;;20.83;9.95;;;;;;;10.63;100.00;101654.41;5087515;28;20044;-72
2023/04/10 04:43:48;;;;;;;21.25;10.52;;;;;;;10.59;100.00;101650.78;5084644;28;20128;-75
2023/04/10 04:46:14;;;;;;;20.83;9.40;;;;;;;10.63;100.00;101651.63;5085341;28;20513;-75
2023/04/10 04:48:41;;;;;;;22.67;10.85;;;;;;;10.57;100.00;101646.41;5087826;28;20130;-74
2023/04/10 04:51:07;;;;;;;20.02;9.20;;;;;;;10.53;100.00;101656.63;5090996;28;20994;-75
2023/04/10 04:53:34;;;;;;;20.75;9.45;;;;;;;10.45;100.00;101652.19;5084377;28;20059;-75
2023/04/10 04:56:01;;;;;;;19.92;9.60;;;;;;;10.49;100.00;101657.75;5084780;28;20048;-74
2023/04/10 04:58:28;;;;;;;19.80;9.73;;;;;;;10.48;100.00;101654.22;5092520;28;20113;-75
2023/04/10 05:00:54;;;;;;;21.38;10.63;;;;;;;10.44;100.00;101656.09;5087392;28;20533;-75
2023/04/10 05:03:21;;;;;;;20.27;10.13;;;;;;;10.41;100.00;101645.00;5086317;28;20082;-75
2023/04/10 05:05:48;;;;;;;21.88;10.35;;;;;;;10.37;100.00;101642.16;5089597;28;20154;-74
2023/04/10 05:08:15;;;;;;;21.73;10.32;;;;;;;10.31;100.00;101649.22;5088989;28;20050;-76
2023/04/10 05:10:41;;;;;;;23.58;10.82;;;;;;;10.22;100.00;101645.91;5086135;28;20044;-76
2023/04/10 05:13:08;;;;;;;22.23;11.50;;;;;;;10.12;100.00;101638.25;5084932;28;20478;-76
2023/04/10 05:15:34;;;;;;;24.35;12.00;;;;;;;10.07;100.00;101644.13;5085621;28;20055;-76
2023/04/10 05:18:01;;;;;;;22.08;11.05;;;;;;;9.97;100.00;101646.66;5087804;28;20101;-76
2023/04/10 05:20:28;;;;;;;24.77;11.70;;;;;;;9.93;100.00;101641.06;5077983;28;20070;-76
2023/04/10 05:22:54;;;;;;;24.55;12.35;;;;;;;9.89;100.00;101642.97;5085062;28;20498;-76
2023/04/10 05:25:21;;;;;;;25.00;12.55;;;;;;;9.81;100.00;101641.28;5086121;28;20083;-76
2023/04/10 05:27:47;;;;;;;23.48;11.40;;;;;;;9.69;100.00;101638.69;5087045;28;20044;-76
2023/04/10 05:30:14;;;;;;;24.42;12.00;;;;;;;9.60;100.00;101648.41;5090847;28;20070;-76
2023/04/10 05:32:41;;;;;;;28.60;13.13;;;;;;;9.52;100.00;101644.72;5086862;28;20145;-76
2023/04/10 05:35:07;;;;;;;22.42;11.32;;;;;;;9.43;100.00;101657.97;5088115;28;20118;-77
2023/04/10 05:37:34;;;;;;;25.67;12.75;;;;;;;9.33;100.00;101649.50;5086520;28;20050;-77
2023/04/10 05:40:01;;;;;;;29.35;12.75;;;;;;;9.33;100.00;101655.81;5091187;28;20051;-76
2023/04/10 05:42:27;;;;;;;26.67;12.63;;;;;;;9.29;100.00;101659.69;5086533;28;20036;-75
2023/04/10 05:44:54;;;;;;;24.65;11.93;;;;;;;9.25;100.00;101656.84;5083574;28;20889;-77
2023/04/10 05:47:20;;;;;;;30.15;13.43;;;;;;;9.21;100.00;101644.16;5087805;28;20139;-78
2023/04/10 05:49:47;;;;;;;23.60;11.95;;;;;;;9.22;100.00;101638.22;5091209;28;20043;-76
2023/04/10 05:52:13;;;;;;;30.70;13.70;;;;;;;9.25;100.00;101650.53;5095226;28;20145;-76
2023/04/10 05:54:40;;;;;;;23.77;12.40;;;;;;;9.30;100.00;101642.75;5091222;28;20051;-76
2023/04/10 05:57:06;;;;;;;23.90;12.25;;;;;;;9.35;100.00;101645.19;5087864;28;20040;-76
2023/04/10 05:59:33;;;;;;;27.77;12.98;;;;;;;9.38;100.00;101643.69;5090799;28;20131;-76
2023/04/10 06:01:59;;;;;;;24.08;12.70;;;;;;;9.44;100.00;101634.72;5093236;28;20040;-76
2023/04/10 06:04:26;;;;;;;28.10;14.57;;;;;;;9.50;100.00;101635.19;5090045;28;20516;-76
2023/04/10 06:06:53;;;;;;;29.48;14.18;;;;;;;9.54;100.00;101631.34;5088119;28;20039;-76
2023/04/10 06:09:19;;;;;;;25.83;12.60;;;;;;;9.62;100.00;101640.56;5089796;28;20075;-76
2023/04/10 06:11:46;;;;;;;25.80;13.65;;;;;;;9.66;100.00;101638.66;5084493;28;20123;-76
2023/04/10 06:14:12;;;;;;;27.27;13.40;;;;;;;9.78;100.00;101641.22;5092561;28;20407;-75
2023/04/10 06:16:39;;;;;;;25.77;13.95;;;;;;;9.84;100.00;101635.00;5092594;28;20052;-76
2023/04/10 06:19:05;;;;;;;27.63;13.70;;;;;;;9.96;100.00;101637.56;5089093;28;20047;-76
2023/04/10 06:21:32;;;;;;;28.83;14.32;;;;;;;10.03;100.00;101623.06;5087691;28;20040;-76
2023/04/10 06:23:58;;;;;;;29.42;13.70;;;;;;;10.15;100.00;101628.41;5085450;28;20044;-76
2023/04/10 06:26:25;;;;;;;29.48;14.15;;;;;;;10.26;100.00;101630.16;5088987;28;20055;-75
2023/04/10 06:28:51;;;;;;;28.70;13.52;;;;;;;10.32;100.00;101617.59;5090497;28;20071;-76
2023/04/10 06:31:22;;;;;;;29.23;12.02;;;;;;;10.41;100.00;101620.91;5084042;28;20041;-76
2023/04/10 06:33:49;;;;;;;23.60;11.85;;;;;;;10.54;100.00;101619.47;5089664;28;20148;-76
2023/04/10 06:36:16;;;;;;;23.00;12.00;;;;;;;10.60;100.00;101611.69;5088387;28;20070;-75
2023/04/10 06:38:43;;;;;;;24.60;10.98;;;;;;;10.72;100.00;101625.25;5089647;28;20682;-75
2023/04/10 06:41:10;;;;;;;22.27;10.70;;;;;;;10.91;100.00;101610.44;5081965;28;20051;-74
2023/04/10 06:43:38;;;;;;;14.90;6.78;;;;;;;11.01;100.00;101618.91;5089610;28;20040;-75
2023/04/10 06:46:05;;;;;;;19.40;8.73;;;;;;;11.17;100.00;101615.91;5093036;28;20044;-75
2023/04/10 06:48:32;;;;;;;19.45;9.52;;;;;;;11.35;100.00;101622.41;5090109;28;20047;-75
2023/04/10 06:51:01;;;;;;;19.30;8.23;;;;;;;11.54;100.00;101622.22;5083534;28;20055;-75
2023/04/10 06:53:28;;;;;;;15.98;7.10;;;;;;;11.65;100.00;101631.44;5081802;28;20498;-75
2023/04/10 06:55:55;;;;;;;13.57;5.50;;;;;;;11.78;100.00;101624.44;5087658;28;20168;-75
2023/04/10 06:58:23;;;;;;;12.50;4.97;;;;;;;12.03;100.00;101617.09;5085977;28;20083;-75
2023/04/10 07:00:49;;;;;;;9.43;4.22;;;;;;;12.24;100.00;101617.22;5090922;28;20048;-75
2023/04/10 07:03:16;;;;;;;17.50;6.85;;;;;;;12.47;100.00;101620.56;5088348;28;20090;-74
2023/04/10 07:05:43;;;;;;;15.10;7.10;;;;;;;12.59;100.00;101618.22;5090283;28;20059;-77
2023/04/10 07:08:09;;;;;;;12.68;6.72;;;;;;;12.81;100.00;101603.28;5089140;28;20416;-76
2023/04/10 07:10:36;;;;;;;17.55;7.75;;;;;;;13.00;100.00;101605.72;5085495;28;20101;-78
2023/04/10 07:13:03;;;;;;;15.25;6.07;;;;;;;13.17;100.00;101604.22;5089285;28;20036;-79
2023/04/10 07:15:29;;;;;;;9.43;4.07;;;;;;;13.25;98.29;101600.25;5088480;28;20058;-80
2023/04/10 07:17:56;;;;;;;11.40;4.88;;;;;;;13.36;95.46;101595.50;5089121;28;20181;-78
2023/04/10 07:20:22;;;;;;;13.90;5.25;;;;;;;13.47;94.26;101579.63;5087026;28;20052;-77
2023/04/10 07:22:49;;;;;;;12.15;5.75;;;;;;;13.62;95.21;101581.22;5085701;28;20044;-79
2023/04/10 07:25:17;;;;;;;15.80;7.07;;;;;;;13.62;92.98;101577.63;5089051;28;20413;-78
2023/04/10 07:27:43;;;;;;;12.27;5.68;;;;;;;13.70;92.67;101577.22;5090018;28;20078;-78
2023/04/10 07:30:10;;;;;;;9.93;4.15;;;;;;;13.71;87.51;101583.59;5084516;28;20134;-77
2023/04/10 07:32:40;;;;;;;14.57;6.00;;;;;;;13.85;91.18;101569.69;5089180;28;20458;-77
2023/04/10 07:35:08;;;;;;;14.40;6.50;;;;;;;13.98;92.69;101570.88;5084510;28;20055;-78
2023/04/10 07:37:34;;;;;;;11.75;4.85;;;;;;;13.98;89.32;101566.09;5086653;28;20062;-77
2023/04/10 07:40:01;;;;;;;18.50;6.68;;;;;;;14.05;89.11;101570.84;5089635;28;20135;-77
2023/04/10 07:42:29;;;;;;;13.00;4.95;;;;;;;14.03;84.69;101574.03;5083806;28;20047;-78
2023/04/10 07:44:56;;;;;;;15.07;5.63;;;;;;;14.21;88.23;101562.88;5087903;28;20801;-77
2023/04/10 07:47:22;;;;;;;14.82;5.78;;;;;;;14.20;86.15;101556.50;5085546;28;20498;-76
2023/04/10 07:49:49;;;;;;;13.05;5.18;;;;;;;14.33;85.31;101554.09;5086596;28;20044;-79
2023/04/10 07:52:15;;;;;;;13.95;5.88;;;;;;;14.40;82.24;101552.09;5092316;28;20499;-76
2023/04/10 07:54:42;;;;;;;9.10;3.63;;;;;;;14.29;78.38;101537.44;5088592;28;20052;-77
2023/04/10 07:57:08;;;;;;;11.20;4.38;;;;;;;14.39;79.75;101547.75;5088003;28;20054;-77
2023/04/10 07:59:35;;;;;;;13.73;6.80;;;;;;;14.48;80.21;101528.59;5083618;28;20062;-77
2023/04/10 08:02:01;;;;;;;12.25;6.03;;;;;;;14.50;83.30;101528.19;5089028;28;20573;-77
2023/04/10 08:04:29;;;;;;;6.68;3.20;;;;;;;14.47;80.17;101529.00;5079527;28;20049;-78
2023/04/10 08:06:56;;;;;;;8.40;4.38;;;;;;;14.55;76.01;101525.00;5088302;28;20052;-76
2023/04/10 08:09:23;;;;;;;10.73;4.13;;;;;;;14.57;74.10;101515.03;5086876;28;20105;-77
2023/04/10 08:11:49;;;;;;;8.52;3.60;;;;;;;14.59;74.10;101522.97;5085408;28;20054;-77
2023/04/10 08:14:16;;;;;;;12.25;5.10;;;;;;;14.62;75.32;101516.59;5088574;28;20395;-77
2023/04/10 08:16:44;;;;;;;14.20;5.90;;;;;;;14.79;76.70;101510.16;5088729;28;20079;-77
2023/04/10 08:19:10;;;;;;;12.07;4.85;;;;;;;14.89;76.20;101509.28;5088538;28;20052;-77
2023/04/10 08:21:37;;;;;;;12.02;5.55;;;;;;;14.99;73.15;101492.50;5084646;28;20040;-77
2023/04/10 08:24:04;;;;;;;5.63;1.80;;;;;;;15.11;69.69;101499.56;5084190;28;20044;-77
2023/04/10 08:26:30;;;;;;;11.32;5.55;;;;;;;15.25;72.20;101499.47;5088417;28;20052;-77
2023/04/10 08:28:59;;;;;;;13.85;5.55;;;;;;;15.38;72.22;101495.81;5085959;28;20071;-78
2023/04/10 08:31:27;;;;;;;7.18;3.38;;;;;;;15.44;68.17;101490.59;5092179;28;20494;-78
2023/04/10 08:33:54;;;;;;;11.35;4.78;;;;;;;15.59;67.46;101496.84;5087336;28;20055;-77
2023/04/10 08:36:21;;;;;;;8.43;3.28;;;;;;;15.63;64.12;101486.44;5087177;28;20052;-78
2023/04/10 08:38:48;;;;;;;10.75;4.32;;;;;;;15.74;62.94;101492.69;5083651;28;20055;-77
2023/04/10 08:41:17;;;;;;;9.77;3.17;;;;;;;15.83;61.94;101468.66;5082414;28;20135;-77
2023/04/10 08:43:44;;;;;;;7.82;3.70;;;;;;;15.95;61.60;101475.72;5080404;28;20052;-77
2023/04/10 08:46:13;;;;;;;7.95;3.50;;;;;;;16.01;60.20;101465.69;5083536;28;20143;-78
2023/04/10 08:48:58;;;;;;;7.88;3.63;;;;;;;16.16;59.57;101459.53;5087808;28;20072;-78
2023/04/10 08:51:31;;;;;;;9.57;4.22;;;;;;;16.33;59.64;101464.09;5078667;28;20428;-78
2023/04/10 08:54:09;;;;;;;8.63;3.72;;;;;;;16.35;56.09;101455.28;5087104;28;20146;-78
2023/04/10 08:56:39;;;;;;;6.65;2.83;;;;;;;16.43;55.04;101452.03;5098529;28;20048;-78
2023/04/10 08:59:06;;;;;;;9.30;4.18;;;;;;;16.71;58.79;101450.84;5085680;28;20454;-76
2023/04/10 09:01:34;;;;;;;8.10;3.72;;;;;;;16.77;54.95;101438.00;5080844;28;20066;-76
2023/04/10 09:04:01;;;;;;;5.97;2.78;;;;;;;16.85;54.45;101433.84;5087160;28;20047;-76
2023/04/10 09:06:28;;;;;;;6.13;3.13;;;;;;;16.79;51.35;101433.53;5087901;28;20744;-79
2023/04/10 09:08:54;;;;;;;6.47;2.35;;;;;;;16.95;50.36;101435.69;5083967;28;20063;-77
2023/04/10 09:11:21;;;;;;;5.20;2.30;;;;;;;16.72;48.23;101444.84;5081126;28;20059;-77
2023/04/10 09:13:47;;;;;;;6.13;2.85;;;;;;;16.83;46.92;101430.69;5086582;28;20135;-79
2023/04/10 09:16:14;;;;;;;4.28;2.08;;;;;;;16.99;47.56;101439.22;5085180;28;20059;-77
2023/04/10 09:18:45;;;;;;;4.72;2.45;;;;;;;17.03;47.17;101420.38;5085841;28;20135;-77
2023/04/10 09:21:18;;;;;;;5.25;2.15;;;;;;;17.11;46.86;101435.84;5087622;28;20052;-77
2023/04/10 09:23:46;;;;;;;7.13;3.92;;;;;;;17.36;47.68;101411.84;5091529;28;20044;-78
2023/04/10 09:26:29;;;;;;;2.13;1.30;;;;;;;17.46;46.42;101430.47;5089711;28;20131;-77
2023/04/10 09:28:58;;;;;;;5.25;2.03;;;;;;;17.45;45.66;101426.06;5088641;28;20051;-79
2023/04/10 09:31:35;;;;;;;4.47;2.03;;;;;;;17.52;45.22;101425.16;5084483;28;20043;-79
2023/04/10 09:34:11;;;;;;;6.93;2.70;;;;;;;17.32;44.20;101422.28;5091216;28;20048;-79
2023/04/10 09:36:40;;;;;;;7.43;3.30;;;;;;;17.49;45.85;101417.63;5085191;28;20058;-77
2023/04/10 09:39:09;;;;;;;3.03;1.63;;;;;;;17.43;45.83;101431.31;5083034;28;20135;-78
2023/04/10 09:41:54;;;;;;;6.90;2.90;;;;;;;17.22;45.31;101431.63;5092611;28;20517;-78
2023/04/10 09:44:34;;;;;;;;;;;;;;;17.48;46.58;101433.59;5092370;28;20052;-77
2023/04/10 09:47:12;;;;;;;3.33;1.98;;;;;;;17.42;45.84;101428.94;5090038;28;19924;-77
2023/04/10 09:49:51;;;;;;;8.00;3.15;;;;;;;17.32;45.66;101421.50;5081511;28;20087;-80
2023/04/10 09:52:31;;;;;;;6.65;2.78;;;;;;;17.37;46.26;101423.78;5082573;28;20043;-78
2023/04/10 09:54:59;;;;;;;2.33;1.30;;;;;;;17.47;46.08;101414.44;5095225;28;20448;-77
2023/04/10 09:57:29;;;;;;;6.47;1.90;;;;;;;17.64;47.15;101413.31;5089348;28;20127;-77
2023/04/10 09:59:59;;;;;;;5.43;2.42;;;;;;;17.50;47.00;101417.19;5089850;28;20039;-78
2023/04/10 10:02:30;;;;;;;6.05;2.22;;;;;;;17.62;46.77;101412.97;5079693;28;20075;-78
2023/04/10 10:05:01;;;;;;;7.07;2.40;;;;;;;17.56;45.08;101426.66;5073951;28;20052;-79
2023/04/10 10:07:28;;;;;;;7.55;3.75;;;;;;;17.69;45.46;101404.44;5088808;28;20044;-78
2023/04/10 10:09:56;;;;;;;5.63;1.95;;;;;;;17.80;44.66;101397.44;5091812;28;20051;-79
2023/04/10 10:12:28;;;;;;;3.88;2.00;;;;;;;17.83;45.64;101402.13;5094056;28;20174;-78
2023/04/10 10:15:10;;;;;;;7.30;2.60;;;;;;;17.74;45.93;101390.75;5095121;28;20451;-78
2023/04/10 10:17:44;;;;;;;10.13;3.25;;;;;;;17.81;45.32;101412.19;5093028;28;20044;-78
2023/04/10 10:20:14;;;;;;;7.07;3.17;;;;;;;17.96;45.22;101382.72;5094839;28;20052;-78
2023/04/10 10:22:41;;;;;;;7.47;2.92;;;;;;;18.07;44.96;101386.06;5090038;28;20054;-78
2023/04/10 10:25:08;;;;;;;2.00;1.50;;;;;;;17.95;45.26;101379.09;5088805;28;20059;-78
2023/04/10 10:27:37;;;;;;;7.88;3.45;;;;;;;18.00;45.26;101366.63;5084348;28;20070;-78
2023/04/10 10:30:06;;;;;;;4.63;2.00;;;;;;;17.91;45.07;101352.41;5091620;28;20050;-77
2023/04/10 10:32:53;;;;;;;5.72;1.98;;;;;;;17.88;45.14;101347.66;5076597;28;20041;-79
2023/04/10 10:35:20;;;;;;;16.73;3.05;;;;;;;17.76;45.00;101351.91;5086043;28;20060;-76
2023/04/10 10:37:49;;;;;;;3.60;1.88;;;;;;;17.92;45.52;101351.97;5078533;28;20131;-77
2023/04/10 10:40:26;;;;;;;5.10;1.83;;;;;;;18.12;45.67;101339.97;5078882;28;20553;-76
2023/04/10 10:42:55;;;;;;;3.58;1.52;;;;;;;18.37;46.49;101341.00;5083912;28;20052;-77
2023/04/10 10:45:49;;;;;;;6.70;2.10;;;;;;;18.28;43.74;101325.97;5083555;28;20048;-78
2023/04/10 10:48:16;;;;;;;5.95;2.30;;;;;;;18.44;45.24;101323.22;5082340;28;20041;-76
2023/04/10 10:50:57;;;;;;;4.78;1.90;;;;;;;18.49;43.36;101311.53;5082969;28;20048;-78
2023/04/10 10:53:39;;;;;;;2.75;1.90;;;;;;;18.43;41.21;101305.66;5081207;28;20048;-79
2023/04/10 10:56:18;;;;;;;5.82;1.88;;;;;;;18.57;41.31;101298.91;5082402;28;20502;-77
2023/04/10 10:58:49;;;;;;;4.75;2.15;;;;;;;18.60;41.57;101284.81;5079983;28;20071;-77
2023/04/10 11:01:17;;;;;;;32.05;4.38;;;;;;;18.87;41.22;101288.09;5079700;28;20048;-79
2023/04/10 11:03:44;;;;;;;4.35;2.10;;;;;;;18.99;40.60;101283.78;5086937;28;20036;-78
2023/04/10 11:06:15;;;;;;;3.80;1.45;;;;;;;18.94;38.71;101275.91;5080467;28;20044;-78
2023/04/10 11:08:46;;;;;;;7.78;3.30;;;;;;;18.97;39.25;101278.63;5085603;28;20047;-77
2023/04/10 11:11:24;;;;;;;5.60;2.50;;;;;;;19.19;39.90;101271.22;5097732;28;20760;-80
2023/04/10 11:13:59;;;;;;;7.18;3.78;;;;;;;19.48;39.99;101260.00;5081025;28;20048;-78
2023/04/10 11:16:30;;;;;;;;;;;;;;;19.48;39.45;101255.16;5083089;28;20058;-77
2023/04/10 11:19:00;;;;;;;5.30;2.63;;;;;;;19.40;38.82;101259.41;5080447;28;20391;-77
2023/04/10 11:22:06;;;;;;;8.77;3.67;;;;;;;19.61;38.89;101244.75;5077063;28;20076;-76